FLX9911 SBCY-SBUL
Flight info
| Callsign | FLX9911 |
|---|---|
| Flight time | 1h 27m |
| Altitude | 35000 |
| Route | KOKLI DCT ENSUK DCT KOTUV DCT EGONI DCT GIDVO DCT EDMIN |
| Aircraft | B738/M-SDE2E3FGHIRWXY/LB1 |
Departure
| Time | 2026-04-20 16:23 |
|---|---|
| Airport | Várzea Grande–Marechal Rondon International Airport (SBCY) |
Arrival
| Time | 2026-04-20 17:51 |
|---|---|
| Airport | Ten. Cel. Aviador César Bombonato Airport (SBUL) |
| Time | Latitude | Longitude | Altitude | Speed | Heading |
|---|---|---|---|---|---|
| 2026-04-20 16:00 | -15.65008 | -56.12000 | 596 ft | 0 kts | 242° |
| 2026-04-20 16:16 | -15.64997 | -56.11978 | 596 ft | 4 kts | 242° |
| 2026-04-20 16:17 | -15.64993 | -56.11969 | 596 ft | 1 kts | 242° |
| 2026-04-20 16:19 | -15.64997 | -56.11969 | 596 ft | 1 kts | 197° |
| 2026-04-20 16:19 | -15.65005 | -56.11958 | 596 ft | 5 kts | 131° |
| 2026-04-20 16:20 | -15.65068 | -56.11920 | 596 ft | 16 kts | 153° |
| 2026-04-20 16:20 | -15.65185 | -56.11857 | 596 ft | 20 kts | 153° |
| 2026-04-20 16:20 | -15.65308 | -56.11791 | 596 ft | 19 kts | 152° |
| 2026-04-20 16:20 | -15.65425 | -56.11726 | 597 ft | 19 kts | 152° |
| 2026-04-20 16:21 | -15.65540 | -56.11665 | 596 ft | 18 kts | 154° |
| 2026-04-20 16:21 | -15.65651 | -56.11606 | 596 ft | 18 kts | 152° |
| 2026-04-20 16:21 | -15.65759 | -56.11552 | 596 ft | 17 kts | 155° |
| 2026-04-20 16:21 | -15.65864 | -56.11495 | 595 ft | 18 kts | 153° |
| 2026-04-20 16:22 | -15.65978 | -56.11434 | 595 ft | 19 kts | 153° |
| 2026-04-20 16:22 | -15.66100 | -56.11370 | 596 ft | 20 kts | 153° |
| 2026-04-20 16:22 | -15.66227 | -56.11300 | 596 ft | 20 kts | 143° |
| 2026-04-20 16:22 | -15.66207 | -56.11199 | 596 ft | 15 kts | 7° |
| 2026-04-20 16:23 | -15.66064 | -56.11263 | 596 ft | 49 kts | 332° |
| 2026-04-20 16:23 | -15.65528 | -56.11547 | 597 ft | 123 kts | 333° |
| 2026-04-20 16:23 | -15.64585 | -56.12037 | 678 ft | 179 kts | 333° |
| 2026-04-20 16:23 | -15.63439 | -56.12614 | 1586 ft | 181 kts | 335° |
| 2026-04-20 16:24 | -15.62373 | -56.13177 | 2724 ft | 173 kts | 334° |
| 2026-04-20 16:24 | -15.61236 | -56.13800 | 3098 ft | 198 kts | 334° |
| 2026-04-20 16:24 | -15.59942 | -56.14504 | 3312 ft | 221 kts | 334° |
| 2026-04-20 16:24 | -15.58411 | -56.14912 | 3551 ft | 237 kts | 6° |
| 2026-04-20 16:25 | -15.56879 | -56.14226 | 3877 ft | 254 kts | 44° |
| 2026-04-20 16:25 | -15.56000 | -56.12823 | 4389 ft | 264 kts | 69° |
| 2026-04-20 16:25 | -15.55757 | -56.10962 | 5333 ft | 262 kts | 94° |
| 2026-04-20 16:25 | -15.56310 | -56.09135 | 6076 ft | 271 kts | 114° |
| 2026-04-20 16:26 | -15.57161 | -56.07369 | 6823 ft | 274 kts | 114° |
| 2026-04-20 16:26 | -15.58019 | -56.05610 | 7555 ft | 277 kts | 115° |
| 2026-04-20 16:26 | -15.58898 | -56.03809 | 8227 ft | 283 kts | 115° |
| 2026-04-20 16:26 | -15.59803 | -56.01954 | 8957 ft | 286 kts | 115° |
| 2026-04-20 16:27 | -15.60693 | -56.00123 | 9699 ft | 290 kts | 115° |
| 2026-04-20 16:27 | -15.61608 | -55.98237 | 10312 ft | 297 kts | 115° |
| 2026-04-20 16:27 | -15.62566 | -55.96255 | 10512 ft | 319 kts | 115° |
| 2026-04-20 16:27 | -15.63594 | -55.94121 | 10681 ft | 341 kts | 115° |
| 2026-04-20 16:28 | -15.64687 | -55.91852 | 10813 ft | 361 kts | 115° |
| 2026-04-20 16:28 | -15.65838 | -55.89465 | 11000 ft | 377 kts | 115° |
| 2026-04-20 16:28 | -15.66936 | -55.87186 | 11367 ft | 384 kts | 115° |
| 2026-04-20 16:28 | -15.68132 | -55.84702 | 11919 ft | 387 kts | 116° |
| 2026-04-20 16:29 | -15.69337 | -55.82196 | 12482 ft | 389 kts | 116° |
| 2026-04-20 16:29 | -15.70553 | -55.79668 | 12984 ft | 393 kts | 116° |
| 2026-04-20 16:29 | -15.71776 | -55.77122 | 13483 ft | 397 kts | 116° |
| 2026-04-20 16:29 | -15.73014 | -55.74545 | 13962 ft | 400 kts | 116° |
| 2026-04-20 16:30 | -15.74259 | -55.71950 | 14436 ft | 402 kts | 116° |
| 2026-04-20 16:30 | -15.75493 | -55.69378 | 14899 ft | 404 kts | 116° |
| 2026-04-20 16:30 | -15.76763 | -55.66732 | 15362 ft | 406 kts | 116° |
| 2026-04-20 16:30 | -15.78010 | -55.64131 | 15796 ft | 408 kts | 116° |
| 2026-04-20 16:31 | -15.79280 | -55.61479 | 16238 ft | 411 kts | 116° |
| 2026-04-20 16:31 | -15.80554 | -55.58821 | 16679 ft | 413 kts | 116° |
| 2026-04-20 16:31 | -15.81837 | -55.56141 | 17118 ft | 415 kts | 116° |
| 2026-04-20 16:31 | -15.83127 | -55.53447 | 17539 ft | 417 kts | 116° |
| 2026-04-20 16:32 | -15.84418 | -55.50748 | 17962 ft | 419 kts | 116° |
| 2026-04-20 16:32 | -15.85720 | -55.48026 | 18360 ft | 421 kts | 116° |
| 2026-04-20 16:32 | -15.87029 | -55.45289 | 18701 ft | 424 kts | 116° |
| 2026-04-20 16:32 | -15.88258 | -55.42508 | 19053 ft | 425 kts | 112° |
| 2026-04-20 16:33 | -15.89333 | -55.39635 | 19391 ft | 427 kts | 110° |
| 2026-04-20 16:33 | -15.90340 | -55.36717 | 19711 ft | 430 kts | 109° |
| 2026-04-20 16:33 | -15.91331 | -55.33776 | 20045 ft | 432 kts | 109° |
| 2026-04-20 16:33 | -15.92329 | -55.30823 | 20371 ft | 434 kts | 110° |
| 2026-04-20 16:34 | -15.93339 | -55.27870 | 20682 ft | 436 kts | 110° |
| 2026-04-20 16:34 | -15.94368 | -55.24897 | 20986 ft | 438 kts | 110° |
| 2026-04-20 16:34 | -15.95410 | -55.21913 | 21290 ft | 440 kts | 110° |
| 2026-04-20 16:34 | -15.96461 | -55.18920 | 21601 ft | 441 kts | 111° |
| 2026-04-20 16:35 | -15.97516 | -55.15926 | 21892 ft | 443 kts | 111° |
| 2026-04-20 16:35 | -15.98579 | -55.12906 | 22172 ft | 446 kts | 111° |
| 2026-04-20 16:35 | -15.99634 | -55.09913 | 22456 ft | 447 kts | 111° |
| 2026-04-20 16:35 | -16.00717 | -55.06836 | 22721 ft | 449 kts | 111° |
| 2026-04-20 16:36 | -16.01780 | -55.03815 | 22963 ft | 452 kts | 111° |
| 2026-04-20 16:36 | -16.02876 | -55.00694 | 23197 ft | 454 kts | 111° |
| 2026-04-20 16:36 | -16.03945 | -54.97651 | 23430 ft | 456 kts | 111° |
| 2026-04-20 16:36 | -16.05035 | -54.94543 | 23646 ft | 458 kts | 111° |
| 2026-04-20 16:37 | -16.06131 | -54.91421 | 23835 ft | 460 kts | 111° |
| 2026-04-20 16:37 | -16.07227 | -54.88295 | 24015 ft | 462 kts | 111° |
| 2026-04-20 16:37 | -16.08331 | -54.85144 | 24210 ft | 464 kts | 111° |
| 2026-04-20 16:37 | -16.09439 | -54.81981 | 24385 ft | 466 kts | 111° |
| 2026-04-20 16:38 | -16.10547 | -54.78814 | 24560 ft | 468 kts | 111° |
| 2026-04-20 16:38 | -16.11664 | -54.75623 | 24751 ft | 470 kts | 111° |
| 2026-04-20 16:38 | -16.12783 | -54.72422 | 24930 ft | 471 kts | 111° |
| 2026-04-20 16:38 | -16.13902 | -54.69221 | 25101 ft | 473 kts | 111° |
| 2026-04-20 16:39 | -16.15028 | -54.65996 | 25266 ft | 475 kts | 111° |
| 2026-04-20 16:39 | -16.16159 | -54.62759 | 25443 ft | 476 kts | 111° |
| 2026-04-20 16:39 | -16.17288 | -54.59521 | 25607 ft | 478 kts | 111° |
| 2026-04-20 16:39 | -16.18425 | -54.56262 | 25777 ft | 480 kts | 111° |
| 2026-04-20 16:40 | -16.19565 | -54.52990 | 25936 ft | 481 kts | 111° |
| 2026-04-20 16:40 | -16.20710 | -54.49705 | 26091 ft | 483 kts | 111° |
| 2026-04-20 16:40 | -16.21854 | -54.46418 | 26242 ft | 485 kts | 111° |
| 2026-04-20 16:40 | -16.23004 | -54.43110 | 26394 ft | 486 kts | 111° |
| 2026-04-20 16:41 | -16.24159 | -54.39791 | 26547 ft | 488 kts | 111° |
| 2026-04-20 16:41 | -16.25312 | -54.36474 | 26702 ft | 489 kts | 111° |
| 2026-04-20 16:41 | -16.26472 | -54.33134 | 26843 ft | 491 kts | 111° |
| 2026-04-20 16:41 | -16.27635 | -54.29784 | 26984 ft | 492 kts | 111° |
| 2026-04-20 16:42 | -16.28797 | -54.26435 | 27131 ft | 494 kts | 111° |
| 2026-04-20 16:42 | -16.29951 | -54.23109 | 27251 ft | 495 kts | 112° |
| 2026-04-20 16:42 | -16.31123 | -54.19727 | 27383 ft | 497 kts | 112° |
| 2026-04-20 16:42 | -16.32310 | -54.16299 | 27505 ft | 498 kts | 112° |
| 2026-04-20 16:43 | -16.33471 | -54.12943 | 27669 ft | 499 kts | 112° |
| 2026-04-20 16:43 | -16.34648 | -54.09542 | 27880 ft | 498 kts | 112° |
| 2026-04-20 16:43 | -16.35822 | -54.06144 | 28098 ft | 498 kts | 112° |
| 2026-04-20 16:43 | -16.36996 | -54.02745 | 28262 ft | 499 kts | 112° |
| 2026-04-20 16:44 | -16.38169 | -53.99352 | 28431 ft | 500 kts | 112° |
| 2026-04-20 16:44 | -16.39345 | -53.95943 | 28621 ft | 499 kts | 112° |
| 2026-04-20 16:44 | -16.40520 | -53.92535 | 28829 ft | 499 kts | 112° |
| 2026-04-20 16:44 | -16.41696 | -53.89126 | 29005 ft | 500 kts | 112° |
| 2026-04-20 16:45 | -16.42868 | -53.85724 | 29187 ft | 500 kts | 112° |
| 2026-04-20 16:45 | -16.44044 | -53.82307 | 29384 ft | 500 kts | 112° |
| 2026-04-20 16:45 | -16.45220 | -53.78890 | 29594 ft | 501 kts | 112° |
| 2026-04-20 16:45 | -16.46393 | -53.75480 | 29781 ft | 501 kts | 112° |
| 2026-04-20 16:46 | -16.47553 | -53.72102 | 29982 ft | 501 kts | 112° |
| 2026-04-20 16:46 | -16.48730 | -53.68677 | 30152 ft | 502 kts | 112° |
| 2026-04-20 16:46 | -16.49902 | -53.65263 | 30333 ft | 502 kts | 112° |
| 2026-04-20 16:46 | -16.51077 | -53.61838 | 30531 ft | 501 kts | 112° |
| 2026-04-20 16:47 | -16.52278 | -53.58388 | 30737 ft | 500 kts | 114° |
| 2026-04-20 16:47 | -16.53514 | -53.55050 | 30954 ft | 499 kts | 115° |
| 2026-04-20 16:47 | -16.54804 | -53.51690 | 31165 ft | 499 kts | 115° |
| 2026-04-20 16:47 | -16.56105 | -53.48336 | 31355 ft | 499 kts | 115° |
| 2026-04-20 16:48 | -16.57404 | -53.44980 | 31554 ft | 499 kts | 115° |
| 2026-04-20 16:48 | -16.58696 | -53.41622 | 31765 ft | 498 kts | 115° |
| 2026-04-20 16:48 | -16.59978 | -53.38265 | 31997 ft | 497 kts | 115° |
| 2026-04-20 16:48 | -16.61253 | -53.34909 | 32223 ft | 497 kts | 115° |
| 2026-04-20 16:49 | -16.62520 | -53.31563 | 32410 ft | 497 kts | 115° |
| 2026-04-20 16:49 | -16.63790 | -53.28201 | 32601 ft | 498 kts | 115° |
| 2026-04-20 16:49 | -16.65059 | -53.24841 | 32861 ft | 497 kts | 115° |
| 2026-04-20 16:49 | -16.66306 | -53.21536 | 33133 ft | 495 kts | 115° |
| 2026-04-20 16:50 | -16.67567 | -53.18191 | 33375 ft | 495 kts | 115° |
| 2026-04-20 16:50 | -16.68829 | -53.14847 | 33592 ft | 495 kts | 116° |
| 2026-04-20 16:50 | -16.70086 | -53.11513 | 33825 ft | 495 kts | 116° |
| 2026-04-20 16:50 | -16.71345 | -53.08173 | 34076 ft | 494 kts | 116° |
| 2026-04-20 16:51 | -16.72601 | -53.04840 | 34290 ft | 493 kts | 116° |
| 2026-04-20 16:51 | -16.73855 | -53.01508 | 34459 ft | 493 kts | 116° |
| 2026-04-20 16:51 | -16.75111 | -52.98172 | 34627 ft | 494 kts | 116° |
| 2026-04-20 16:51 | -16.76362 | -52.94845 | 34817 ft | 493 kts | 115° |
| 2026-04-20 16:52 | -16.77617 | -52.91509 | 34955 ft | 494 kts | 115° |
| 2026-04-20 16:52 | -16.78876 | -52.88160 | 34942 ft | 496 kts | 115° |
| 2026-04-20 16:52 | -16.81386 | -52.81471 | 34950 ft | 494 kts | 115° |
| 2026-04-20 16:53 | -16.83868 | -52.74847 | 34950 ft | 492 kts | 115° |
| 2026-04-20 16:53 | -16.86356 | -52.68203 | 34955 ft | 490 kts | 115° |
| 2026-04-20 16:54 | -16.88429 | -52.62663 | 34956 ft | 489 kts | 115° |
| 2026-04-20 16:54 | -16.91306 | -52.54965 | 34952 ft | 490 kts | 115° |
| 2026-04-20 16:55 | -16.93364 | -52.49453 | 34955 ft | 490 kts | 115° |
| 2026-04-20 16:55 | -16.95844 | -52.42803 | 34954 ft | 491 kts | 115° |
| 2026-04-20 16:56 | -16.98325 | -52.36144 | 34962 ft | 493 kts | 115° |
| 2026-04-20 16:56 | -17.00811 | -52.29461 | 34964 ft | 495 kts | 115° |
| 2026-04-20 16:57 | -17.03307 | -52.22743 | 34969 ft | 496 kts | 115° |
| 2026-04-20 16:57 | -17.05833 | -52.16018 | 34964 ft | 496 kts | 117° |
| 2026-04-20 16:58 | -17.08673 | -52.09508 | 34969 ft | 495 kts | 120° |
| 2026-04-20 16:58 | -17.11668 | -52.03024 | 34971 ft | 496 kts | 120° |
| 2026-04-20 16:59 | -17.14643 | -51.96521 | 34962 ft | 496 kts | 120° |
| 2026-04-20 16:59 | -17.17585 | -51.89987 | 34969 ft | 496 kts | 120° |
| 2026-04-20 17:00 | -17.21970 | -51.80182 | 34969 ft | 496 kts | 120° |
| 2026-04-20 17:01 | -17.24892 | -51.73639 | 34968 ft | 496 kts | 120° |
| 2026-04-20 17:01 | -17.27811 | -51.67101 | 34976 ft | 495 kts | 120° |
| 2026-04-20 17:02 | -17.30706 | -51.60615 | 34985 ft | 494 kts | 120° |
| 2026-04-20 17:02 | -17.33617 | -51.54084 | 34987 ft | 495 kts | 120° |
| 2026-04-20 17:03 | -17.36523 | -51.47558 | 34968 ft | 495 kts | 120° |
| 2026-04-20 17:03 | -17.39431 | -51.41019 | 34980 ft | 495 kts | 120° |
| 2026-04-20 17:04 | -17.42334 | -51.34488 | 34975 ft | 495 kts | 120° |
| 2026-04-20 17:04 | -17.45239 | -51.27941 | 34974 ft | 495 kts | 120° |
| 2026-04-20 17:05 | -17.48140 | -51.21400 | 34971 ft | 495 kts | 120° |
| 2026-04-20 17:05 | -17.51040 | -51.14851 | 34967 ft | 496 kts | 120° |
| 2026-04-20 17:06 | -17.53945 | -51.08286 | 34967 ft | 496 kts | 120° |
| 2026-04-20 17:06 | -17.56845 | -51.01724 | 34979 ft | 496 kts | 120° |
| 2026-04-20 17:07 | -17.59750 | -50.95145 | 34966 ft | 497 kts | 120° |
| 2026-04-20 17:07 | -17.62648 | -50.88574 | 34971 ft | 497 kts | 120° |
| 2026-04-20 17:08 | -17.65544 | -50.82000 | 34963 ft | 497 kts | 120° |
| 2026-04-20 17:08 | -17.68443 | -50.75411 | 34964 ft | 497 kts | 120° |
| 2026-04-20 17:09 | -17.71335 | -50.68834 | 34961 ft | 497 kts | 120° |
| 2026-04-20 17:09 | -17.74226 | -50.62248 | 34962 ft | 496 kts | 120° |
| 2026-04-20 17:10 | -17.77089 | -50.55722 | 34952 ft | 496 kts | 120° |
| 2026-04-20 17:10 | -17.79965 | -50.49158 | 34954 ft | 495 kts | 120° |
| 2026-04-20 17:11 | -17.82842 | -50.42586 | 34950 ft | 495 kts | 120° |
| 2026-04-20 17:11 | -17.85708 | -50.36030 | 34953 ft | 494 kts | 120° |
| 2026-04-20 17:12 | -17.88573 | -50.29472 | 34947 ft | 494 kts | 120° |
| 2026-04-20 17:12 | -17.91438 | -50.22903 | 34949 ft | 494 kts | 120° |
| 2026-04-20 17:13 | -17.94301 | -50.16334 | 34950 ft | 494 kts | 120° |
| 2026-04-20 17:13 | -17.97144 | -50.09802 | 34945 ft | 494 kts | 120° |
| 2026-04-20 17:14 | -18.00018 | -50.03200 | 34951 ft | 494 kts | 121° |
| 2026-04-20 17:14 | -18.03235 | -49.96873 | 34960 ft | 489 kts | 126° |
| 2026-04-20 17:15 | -18.06699 | -49.90712 | 34947 ft | 489 kts | 126° |
| 2026-04-20 17:15 | -18.10113 | -49.84585 | 34953 ft | 490 kts | 126° |
| 2026-04-20 17:16 | -18.13505 | -49.78373 | 34946 ft | 490 kts | 126° |
| 2026-04-20 17:16 | -18.16875 | -49.72150 | 34953 ft | 490 kts | 126° |
| 2026-04-20 17:17 | -18.20259 | -49.65901 | 34395 ft | 498 kts | 126° |
| 2026-04-20 17:17 | -18.21971 | -49.62739 | 33807 ft | 495 kts | 125° |
| 2026-04-20 17:17 | -18.23677 | -49.59585 | 32999 ft | 496 kts | 125° |
| 2026-04-20 17:17 | -18.25383 | -49.56429 | 32285 ft | 495 kts | 125° |
| 2026-04-20 17:18 | -18.27083 | -49.53283 | 31549 ft | 496 kts | 124° |
| 2026-04-20 17:18 | -18.28792 | -49.50122 | 30779 ft | 497 kts | 124° |
| 2026-04-20 17:18 | -18.30507 | -49.46948 | 29988 ft | 499 kts | 124° |
| 2026-04-20 17:18 | -18.32228 | -49.43760 | 29024 ft | 500 kts | 123° |
| 2026-04-20 17:19 | -18.33945 | -49.40577 | 28128 ft | 500 kts | 123° |
| 2026-04-20 17:19 | -18.35656 | -49.37404 | 27220 ft | 499 kts | 123° |
| 2026-04-20 17:19 | -18.37366 | -49.34229 | 26289 ft | 498 kts | 122° |
| 2026-04-20 17:19 | -18.39076 | -49.31054 | 25537 ft | 494 kts | 122° |
| 2026-04-20 17:20 | -18.40732 | -49.27975 | 24899 ft | 488 kts | 122° |
| 2026-04-20 17:20 | -18.42397 | -49.24881 | 24316 ft | 481 kts | 121° |
| 2026-04-20 17:20 | -18.44026 | -49.21829 | 23635 ft | 477 kts | 120° |
| 2026-04-20 17:20 | -18.45418 | -49.18702 | 23279 ft | 464 kts | 115° |
| 2026-04-20 17:21 | -18.46646 | -49.15559 | 22580 ft | 460 kts | 114° |
| 2026-04-20 17:21 | -18.47824 | -49.12456 | 21913 ft | 455 kts | 113° |
| 2026-04-20 17:21 | -18.48992 | -49.09378 | 21269 ft | 450 kts | 114° |
| 2026-04-20 17:21 | -18.50162 | -49.06334 | 20599 ft | 445 kts | 113° |
| 2026-04-20 17:22 | -18.51327 | -49.03334 | 19985 ft | 440 kts | 114° |
| 2026-04-20 17:22 | -18.52655 | -49.00465 | 19326 ft | 432 kts | 123° |
| 2026-04-20 17:22 | -18.54430 | -48.97966 | 18498 ft | 422 kts | 133° |
| 2026-04-20 17:22 | -18.56433 | -48.95733 | 17390 ft | 419 kts | 134° |
| 2026-04-20 17:23 | -18.58415 | -48.93493 | 16336 ft | 415 kts | 133° |
| 2026-04-20 17:23 | -18.60334 | -48.91286 | 15717 ft | 401 kts | 132° |
| 2026-04-20 17:23 | -18.62179 | -48.89147 | 15114 ft | 389 kts | 132° |
| 2026-04-20 17:23 | -18.63972 | -48.87062 | 14551 ft | 379 kts | 132° |
| 2026-04-20 17:24 | -18.65726 | -48.85020 | 14002 ft | 371 kts | 131° |
| 2026-04-20 17:24 | -18.67444 | -48.83020 | 13414 ft | 368 kts | 131° |
| 2026-04-20 17:24 | -18.69188 | -48.80988 | 12852 ft | 382 kts | 131° |
| 2026-04-20 17:24 | -18.70997 | -48.78880 | 12248 ft | 392 kts | 131° |
| 2026-04-20 17:25 | -18.72808 | -48.76770 | 11649 ft | 381 kts | 131° |
| 2026-04-20 17:25 | -18.74556 | -48.74735 | 11255 ft | 364 kts | 132° |
| 2026-04-20 17:25 | -18.76206 | -48.72813 | 11114 ft | 344 kts | 132° |
| 2026-04-20 17:25 | -18.77765 | -48.70996 | 10966 ft | 330 kts | 132° |
| 2026-04-20 17:26 | -18.79283 | -48.69225 | 10837 ft | 323 kts | 132° |
| 2026-04-20 17:26 | -18.80809 | -48.67445 | 10797 ft | 334 kts | 132° |
| 2026-04-20 17:26 | -18.82390 | -48.65600 | 10802 ft | 342 kts | 132° |
| 2026-04-20 17:26 | -18.83994 | -48.63728 | 10811 ft | 343 kts | 132° |
| 2026-04-20 17:27 | -18.85570 | -48.61838 | 10788 ft | 342 kts | 127° |
| 2026-04-20 17:27 | -18.86633 | -48.59607 | 10813 ft | 342 kts | 104° |
| 2026-04-20 17:27 | -18.86820 | -48.57125 | 10824 ft | 342 kts | 83° |
| 2026-04-20 17:27 | -18.86169 | -48.54719 | 10853 ft | 337 kts | 70° |
| 2026-04-20 17:28 | -18.85767 | -48.52350 | 10719 ft | 322 kts | 96° |
| 2026-04-20 17:28 | -18.86465 | -48.50208 | 10629 ft | 303 kts | 126° |
| 2026-04-20 17:28 | -18.88008 | -48.48830 | 10528 ft | 286 kts | 158° |
| 2026-04-20 17:28 | -18.89904 | -48.48561 | 10416 ft | 271 kts | 191° |
| 2026-04-20 17:29 | -18.91550 | -48.49408 | 10148 ft | 265 kts | 225° |
| 2026-04-20 17:29 | -18.92767 | -48.50820 | 10100 ft | 258 kts | 219° |
| 2026-04-20 17:29 | -18.94311 | -48.51759 | 10046 ft | 257 kts | 204° |
| 2026-04-20 17:29 | -18.95894 | -48.52639 | 10003 ft | 263 kts | 214° |
| 2026-04-20 17:30 | -18.97335 | -48.53887 | 10001 ft | 267 kts | 227° |
| 2026-04-20 17:30 | -18.98428 | -48.55435 | 9970 ft | 266 kts | 240° |
| 2026-04-20 17:30 | -18.99207 | -48.57228 | 9962 ft | 265 kts | 253° |
| 2026-04-20 17:30 | -18.99467 | -48.59134 | 9957 ft | 263 kts | 273° |
| 2026-04-20 17:31 | -18.99318 | -48.61027 | 9954 ft | 262 kts | 275° |
| 2026-04-20 17:31 | -18.99169 | -48.62953 | 9966 ft | 263 kts | 275° |
| 2026-04-20 17:31 | -18.99017 | -48.64875 | 9957 ft | 263 kts | 275° |
| 2026-04-20 17:31 | -18.99043 | -48.66834 | 9953 ft | 278 kts | 254° |
| 2026-04-20 17:32 | -19.00046 | -48.68648 | 9973 ft | 295 kts | 222° |
| 2026-04-20 17:32 | -19.01820 | -48.69648 | 9956 ft | 290 kts | 190° |
| 2026-04-20 17:32 | -19.03789 | -48.69541 | 9952 ft | 279 kts | 161° |
| 2026-04-20 17:32 | -19.05407 | -48.68551 | 9944 ft | 265 kts | 135° |
| 2026-04-20 17:33 | -19.06408 | -48.66996 | 9944 ft | 253 kts | 111° |
| 2026-04-20 17:33 | -19.06769 | -48.65198 | 9943 ft | 251 kts | 90° |
| 2026-04-20 17:33 | -19.06667 | -48.63338 | 9793 ft | 257 kts | 84° |
| 2026-04-20 17:33 | -19.06450 | -48.61445 | 9534 ft | 260 kts | 82° |
| 2026-04-20 17:34 | -19.06222 | -48.59580 | 9279 ft | 258 kts | 83° |
| 2026-04-20 17:34 | -19.05996 | -48.57698 | 9038 ft | 256 kts | 83° |
| 2026-04-20 17:34 | -19.05779 | -48.55831 | 8798 ft | 255 kts | 83° |
| 2026-04-20 17:34 | -19.05569 | -48.53981 | 8555 ft | 253 kts | 83° |
| 2026-04-20 17:35 | -19.05363 | -48.52136 | 8337 ft | 252 kts | 83° |
| 2026-04-20 17:35 | -19.05161 | -48.50302 | 8112 ft | 250 kts | 84° |
| 2026-04-20 17:35 | -19.04962 | -48.48479 | 7897 ft | 249 kts | 84° |
| 2026-04-20 17:35 | -19.04765 | -48.46666 | 7669 ft | 249 kts | 84° |
| 2026-04-20 17:36 | -19.04567 | -48.44848 | 7442 ft | 249 kts | 84° |
| 2026-04-20 17:36 | -19.04369 | -48.43025 | 7196 ft | 249 kts | 84° |
| 2026-04-20 17:36 | -19.04170 | -48.41203 | 6959 ft | 249 kts | 84° |
| 2026-04-20 17:36 | -19.04025 | -48.39402 | 6743 ft | 249 kts | 91° |
| 2026-04-20 17:37 | -19.04109 | -48.37605 | 6671 ft | 242 kts | 95° |
| 2026-04-20 17:37 | -19.04402 | -48.35872 | 6497 ft | 238 kts | 118° |
| 2026-04-20 17:37 | -19.05519 | -48.34670 | 6420 ft | 230 kts | 159° |
| 2026-04-20 17:37 | -19.07110 | -48.34517 | 6420 ft | 242 kts | 197° |
| 2026-04-20 17:38 | -19.08581 | -48.35397 | 6414 ft | 250 kts | 218° |
| 2026-04-20 17:38 | -19.10041 | -48.36466 | 6422 ft | 257 kts | 215° |
| 2026-04-20 17:38 | -19.11495 | -48.37561 | 6414 ft | 257 kts | 217° |
| 2026-04-20 17:38 | -19.12928 | -48.38680 | 6393 ft | 256 kts | 217° |
| 2026-04-20 17:39 | -19.14360 | -48.39796 | 6381 ft | 255 kts | 213° |
| 2026-04-20 17:39 | -19.16006 | -48.40459 | 6313 ft | 254 kts | 185° |
| 2026-04-20 17:39 | -19.17696 | -48.40172 | 6293 ft | 245 kts | 155° |
| 2026-04-20 17:39 | -19.18972 | -48.39043 | 6282 ft | 240 kts | 123° |
| 2026-04-20 17:40 | -19.19498 | -48.37380 | 6304 ft | 243 kts | 92° |
| 2026-04-20 17:40 | -19.19144 | -48.35648 | 6303 ft | 245 kts | 60° |
| 2026-04-20 17:40 | -19.17997 | -48.34342 | 6338 ft | 245 kts | 30° |
| 2026-04-20 17:40 | -19.16997 | -48.33793 | 6364 ft | 245 kts | 24° |
| 2026-04-20 17:41 | -19.15414 | -48.33110 | 6348 ft | 246 kts | 18° |
| 2026-04-20 17:41 | -19.13787 | -48.32550 | 6374 ft | 245 kts | 17° |
| 2026-04-20 17:41 | -19.12155 | -48.32008 | 6392 ft | 248 kts | 16° |
| 2026-04-20 17:41 | -19.10506 | -48.31465 | 6399 ft | 248 kts | 16° |
| 2026-04-20 17:42 | -19.08860 | -48.30930 | 6420 ft | 245 kts | 15° |
| 2026-04-20 17:42 | -19.07193 | -48.30802 | 6325 ft | 239 kts | 348° |
| 2026-04-20 17:42 | -19.05569 | -48.30975 | 6241 ft | 233 kts | 9° |
| 2026-04-20 17:42 | -19.04211 | -48.30173 | 6085 ft | 223 kts | 49° |
| 2026-04-20 17:43 | -19.03254 | -48.28884 | 5884 ft | 225 kts | 56° |
| 2026-04-20 17:43 | -19.02734 | -48.27348 | 5629 ft | 221 kts | 90° |
| 2026-04-20 17:43 | -19.03022 | -48.25813 | 5673 ft | 210 kts | 108° |
| 2026-04-20 17:43 | -19.03619 | -48.24413 | 5649 ft | 214 kts | 130° |
| 2026-04-20 17:44 | -19.04823 | -48.23525 | 5655 ft | 211 kts | 165° |
| 2026-04-20 17:44 | -19.06248 | -48.23500 | 5634 ft | 208 kts | 193° |
| 2026-04-20 17:44 | -19.07670 | -48.23828 | 5616 ft | 209 kts | 193° |
| 2026-04-20 17:44 | -19.09088 | -48.24177 | 5470 ft | 210 kts | 198° |
| 2026-04-20 17:45 | -19.10474 | -48.24640 | 5312 ft | 208 kts | 200° |
| 2026-04-20 17:45 | -19.11684 | -48.25426 | 5142 ft | 206 kts | 230° |
| 2026-04-20 17:45 | -19.12221 | -48.26767 | 4925 ft | 198 kts | 266° |
| 2026-04-20 17:45 | -19.11866 | -48.28109 | 4777 ft | 189 kts | 306° |
| 2026-04-20 17:46 | -19.10788 | -48.28892 | 4709 ft | 195 kts | 345° |
| 2026-04-20 17:46 | -19.09469 | -48.28877 | 4679 ft | 184 kts | 5° |
| 2026-04-20 17:46 | -19.08261 | -48.28927 | 4718 ft | 169 kts | 351° |
| 2026-04-20 17:46 | -19.07089 | -48.28995 | 4728 ft | 167 kts | 360° |
| 2026-04-20 17:47 | -19.05936 | -48.29009 | 4690 ft | 164 kts | 351° |
| 2026-04-20 17:47 | -19.04796 | -48.29166 | 4708 ft | 167 kts | 351° |
| 2026-04-20 17:47 | -19.03623 | -48.29148 | 4704 ft | 173 kts | 13° |
| 2026-04-20 17:47 | -19.02504 | -48.28741 | 4701 ft | 169 kts | 17° |
| 2026-04-20 17:48 | -19.01414 | -48.28329 | 4716 ft | 166 kts | 19° |
| 2026-04-20 17:48 | -19.00352 | -48.27878 | 4745 ft | 169 kts | 21° |
| 2026-04-20 17:48 | -18.99268 | -48.27402 | 4726 ft | 169 kts | 21° |
| 2026-04-20 17:48 | -18.98184 | -48.26930 | 4757 ft | 171 kts | 21° |
| 2026-04-20 17:49 | -18.97081 | -48.26442 | 4729 ft | 170 kts | 22° |
| 2026-04-20 17:49 | -18.95991 | -48.25959 | 4545 ft | 168 kts | 22° |
| 2026-04-20 17:49 | -18.94919 | -48.25486 | 4315 ft | 166 kts | 21° |
| 2026-04-20 17:49 | -18.93854 | -48.25019 | 4133 ft | 167 kts | 21° |
| 2026-04-20 17:50 | -18.92786 | -48.24544 | 3937 ft | 166 kts | 21° |
| 2026-04-20 17:50 | -18.91720 | -48.24073 | 3680 ft | 165 kts | 21° |
| 2026-04-20 17:50 | -18.90662 | -48.23606 | 3445 ft | 164 kts | 21° |
| 2026-04-20 17:50 | -18.89614 | -48.23142 | 3244 ft | 164 kts | 23° |
| 2026-04-20 17:51 | -18.88565 | -48.22684 | 3108 ft | 157 kts | 23° |
| 2026-04-20 17:51 | -18.87892 | -48.22386 | 3107 ft | 50 kts | 22° |
| 2026-04-20 17:51 | -18.87723 | -48.22300 | 3109 ft | 22 kts | 43° |
| 2026-04-20 17:51 | -18.87696 | -48.22287 | 3109 ft | 1 kts | 316° |
| 2026-04-20 17:52 | -18.87696 | -48.22297 | 3109 ft | 1 kts | 265° |
| 2026-04-20 17:52 | -18.87701 | -48.22306 | 3109 ft | 1 kts | 235° |
| 2026-04-20 17:52 | -18.87717 | -48.22317 | 3109 ft | 5 kts | 199° |
| 2026-04-20 17:52 | -18.87767 | -48.22333 | 3109 ft | 10 kts | 199° |
| 2026-04-20 17:53 | -18.87851 | -48.22368 | 3107 ft | 16 kts | 202° |
| 2026-04-20 17:53 | -18.87967 | -48.22419 | 3107 ft | 20 kts | 202° |
| 2026-04-20 17:53 | -18.88103 | -48.22478 | 3107 ft | 23 kts | 202° |
| 2026-04-20 17:53 | -18.88261 | -48.22548 | 3107 ft | 26 kts | 202° |
| 2026-04-20 17:54 | -18.88431 | -48.22622 | 3108 ft | 27 kts | 202° |
| 2026-04-20 17:54 | -18.88614 | -48.22703 | 3108 ft | 30 kts | 202° |
| 2026-04-20 17:54 | -18.88764 | -48.22800 | 3108 ft | 14 kts | 240° |
| 2026-04-20 17:54 | -18.88811 | -48.22900 | 3107 ft | 15 kts | 234° |
| 2026-04-20 17:55 | -18.88892 | -48.22947 | 3107 ft | 9 kts | 204° |
| 2026-04-20 17:55 | -18.88940 | -48.22970 | 3107 ft | 0 kts | 218° |
| 2026-04-20 17:55 | -18.88941 | -48.22971 | 3107 ft | 1 kts | 220° |
| 2026-04-20 17:55 | -18.88943 | -48.22975 | 3107 ft | 1 kts | 234° |
| 2026-04-20 17:56 | -18.88945 | -48.22980 | 3107 ft | 0 kts | 253° |
| 2026-04-20 17:56 | -18.88944 | -48.22981 | 3107 ft | 0 kts | 263° |
| 2026-04-20 17:56 | -18.88944 | -48.22993 | 3107 ft | 5 kts | 276° |
| 2026-04-20 17:57 | -18.88938 | -48.23012 | 3107 ft | 0 kts | 290° |
| 2026-04-20 17:57 | -18.88938 | -48.23014 | 3107 ft | 0 kts | 291° |